Time;durP1;ratioP1;P1;durP2;ratioP2;P2;SDS_P1;SDS_P2;PMS_P1;PMS_P2;Temp;Humidity;BMP_temperature;BMP_pressure;BME280_temperature;BME280_humidity;BME280_pressure;Samples;Min_cycle;Max_cycle;Signal;HPM_P1;HPM_P2
2022/05/04 00:01:29;;;;;;;29.63;6.33;;;14.10;36.50;;;;;;5079848;28;20468;-66
2022/05/04 00:03:56;;;;;;;30.87;6.20;;;14.10;36.40;;;;;;5072722;28;20488;-64
2022/05/04 00:06:23;;;;;;;31.60;6.83;;;14.20;36.00;;;;;;5077912;28;20966;-66
2022/05/04 00:08:50;;;;;;;33.37;6.80;;;14.20;36.60;;;;;;5071108;28;21045;-61
2022/05/04 00:11:17;;;;;;;30.00;5.53;;;14.10;37.20;;;;;;5071210;28;20980;-64
2022/05/04 00:13:45;;;;;;;29.37;6.23;;;14.10;36.40;;;;;;5079822;28;20464;-64
2022/05/04 00:16:12;;;;;;;29.77;6.60;;;14.10;36.40;;;;;;5076887;28;20484;-65
2022/05/04 00:18:38;;;;;;;32.30;7.77;;;14.10;36.70;;;;;;5075871;28;20496;-62
2022/05/04 00:21:07;;;;;;;29.83;7.27;;;14.10;36.70;;;;;;5071618;28;20487;-64
2022/05/04 00:23:34;;;;;;;28.47;6.33;;;14.10;37.00;;;;;;5076291;28;20477;-66
2022/05/04 00:26:00;;;;;;;30.20;6.97;;;14.00;37.30;;;;;;5073165;28;20803;-65
2022/05/04 00:28:27;;;;;;;28.60;5.90;;;14.00;37.10;;;;;;5074869;28;20452;-64
2022/05/04 00:30:56;;;;;;;29.90;7.10;;;14.00;37.70;;;;;;5073397;28;20469;-64
2022/05/04 00:33:22;;;;;;;30.77;6.97;;;13.90;37.70;;;;;;5072351;28;20452;-64
2022/05/04 00:35:49;;;;;;;30.77;7.60;;;13.90;37.90;;;;;;5084629;28;20491;-63
2022/05/04 00:38:16;;;;;;;31.30;8.17;;;13.90;37.90;;;;;;5082507;28;20483;-64
2022/05/04 00:40:43;;;;;;;31.80;9.00;;;13.90;38.40;;;;;;5076395;28;20905;-63
2022/05/04 00:43:21;;;;;;;31.17;8.30;;;14.00;39.10;;;;;;5071800;28;20484;-63
2022/05/04 00:45:48;;;;;;;30.80;6.90;;;13.90;39.10;;;;;;5075676;28;20453;-62
2022/05/04 00:48:16;;;;;;;30.90;7.67;;;14.00;39.50;;;;;;5078016;28;20465;-64
2022/05/04 00:50:43;;;;;;;32.90;9.87;;;14.00;39.10;;;;;;5071390;28;20484;-65
2022/05/04 00:53:10;;;;;;;31.73;8.43;;;13.90;39.10;;;;;;5072911;28;20453;-64
2022/05/04 00:55:37;;;;;;;30.80;7.50;;;13.90;38.90;;;;;;5081947;28;20529;-63
2022/05/04 01:00:51;;;;;;;32.30;10.37;;;13.80;39.10;;;;;;5070877;28;20628;-64
2022/05/04 01:03:19;;;;;;;31.30;8.67;;;13.90;38.90;;;;;;5079896;28;20477;-64
2022/05/04 01:05:46;;;;;;;32.70;8.53;;;13.90;39.10;;;;;;5080405;28;20460;-63
2022/05/04 01:08:13;;;;;;;31.27;8.47;;;13.90;39.00;;;;;;5083079;28;20460;-63
2022/05/04 01:10:40;;;;;;;32.73;9.40;;;13.80;38.80;;;;;;5079702;28;20481;-64
2022/05/04 01:13:07;;;;;;;30.73;7.70;;;13.80;38.70;;;;;;5084875;28;20855;-63
2022/05/04 01:15:34;;;;;;;32.73;8.03;;;13.80;38.90;;;;;;5086503;28;20456;-64
2022/05/04 01:18:00;;;;;;;31.00;8.60;;;13.90;39.10;;;;;;5078670;28;20995;-63
2022/05/04 01:20:28;;;;;;;32.97;9.50;;;13.90;38.70;;;;;;5079566;28;20480;-63
2022/05/04 01:22:57;;;;;;;31.87;8.90;;;13.90;38.90;;;;;;5072100;28;20453;-64
2022/05/04 01:25:24;;;;;;;32.87;9.63;;;13.90;38.70;;;;;;5080118;28;20459;-65
2022/05/04 01:27:50;;;;;;;32.70;9.10;;;13.80;39.10;;;;;;5078090;28;20460;-63
2022/05/04 01:30:17;;;;;;;33.17;9.30;;;13.80;39.30;;;;;;5078787;28;20472;-63
2022/05/04 01:32:44;;;;;;;35.27;8.97;;;13.80;39.70;;;;;;5076377;28;20452;-64
2022/05/04 01:35:11;;;;;;;32.17;9.10;;;13.80;39.70;;;;;;5077129;28;20465;-65
2022/05/04 01:37:37;;;;;;;33.77;10.40;;;13.80;39.80;;;;;;5073972;28;20987;-63
2022/05/04 01:40:07;;;;;;;33.20;8.93;;;13.80;39.80;;;;;;5079579;28;20483;-62
2022/05/04 01:42:34;;;;;;;33.60;9.10;;;13.80;40.20;;;;;;5078937;28;20453;-64
2022/05/04 01:45:00;;;;;;;32.47;8.77;;;13.80;39.80;;;;;;5077436;28;20495;-63
2022/05/04 01:47:27;;;;;;;32.23;8.20;;;13.80;39.60;;;;;;5086774;28;20456;-67
2022/05/04 01:49:54;;;;;;;32.10;9.30;;;13.70;39.50;;;;;;5073899;28;20477;-62
2022/05/04 01:52:21;;;;;;;33.83;9.60;;;13.70;39.30;;;;;;5071988;28;20479;-62
2022/05/04 01:54:47;;;;;;;35.60;10.00;;;13.80;39.10;;;;;;5084059;28;20829;-64
2022/05/04 01:57:15;;;;;;;33.20;9.07;;;13.70;39.30;;;;;;5077048;28;20463;-64
2022/05/04 01:59:42;;;;;;;33.07;10.03;;;13.70;39.80;;;;;;5078445;28;20480;-63
2022/05/04 02:02:09;;;;;;;33.50;8.60;;;13.70;39.90;;;;;;5078396;28;20458;-62
2022/05/04 02:04:37;;;;;;;32.77;8.93;;;13.70;39.90;;;;;;5085813;28;20484;-62
2022/05/04 02:07:04;;;;;;;33.43;9.37;;;13.70;39.60;;;;;;5081094;28;21320;-64
2022/05/04 02:09:32;;;;;;;32.37;8.97;;;13.70;39.50;;;;;;5089263;28;20480;-66
2022/05/04 02:11:59;;;;;;;33.23;8.80;;;13.70;39.40;;;;;;5084480;28;20466;-63
2022/05/04 02:14:27;;;;;;;32.20;8.50;;;13.70;39.20;;;;;;5082285;28;20456;-65
2022/05/04 02:16:53;;;;;;;32.90;8.97;;;13.70;39.20;;;;;;5079807;28;21035;-63
2022/05/04 02:19:20;;;;;;;33.73;9.43;;;13.60;39.00;;;;;;5080365;28;20488;-65
2022/05/04 02:21:47;;;;;;;34.93;9.10;;;13.60;39.10;;;;;;5075448;28;20472;-62
2022/05/04 02:24:14;;;;;;;34.07;9.03;;;13.60;39.50;;;;;;5078558;28;20491;-66
2022/05/04 02:26:40;;;;;;;37.30;9.80;;;13.60;39.70;;;;;;5086902;28;20471;-63
2022/05/04 02:29:07;;;;;;;35.70;11.33;;;13.60;39.60;;;;;;5074711;28;20477;-63
2022/05/04 02:31:35;;;;;;;34.23;11.00;;;13.60;39.60;;;;;;5072151;28;20476;-62
2022/05/04 02:34:02;;;;;;;38.30;11.00;;;13.50;39.90;;;;;;5075248;28;20457;-62
2022/05/04 02:39:13;;;;;;;35.40;11.20;;;13.50;39.60;;;;;;5076612;28;20534;-62
2022/05/04 02:41:40;;;;;;;34.60;10.10;;;13.50;40.20;;;;;;5077892;28;20479;-61
2022/05/04 02:44:07;;;;;;;34.50;10.30;;;13.50;39.90;;;;;;5080046;28;20598;-62
2022/05/04 02:46:35;;;;;;;34.97;11.20;;;13.50;40.30;;;;;;5076308;28;20461;-62
2022/05/04 02:49:01;;;;;;;36.20;11.57;;;13.50;40.70;;;;;;5078880;28;20494;-63
2022/05/04 02:51:29;;;;;;;34.57;11.10;;;13.40;40.30;;;;;;5069594;28;20468;-62
2022/05/04 02:53:55;;;;;;;36.67;12.07;;;13.40;40.30;;;;;;5075818;28;20452;-65
2022/05/04 02:56:22;;;;;;;34.27;10.60;;;13.40;40.20;;;;;;5080725;28;20462;-62
2022/05/04 02:58:51;;;;;;;34.77;11.37;;;13.30;40.90;;;;;;5077827;28;20910;-62
2022/05/04 03:04:06;;;;;;;34.77;11.33;;;13.10;41.40;;;;;;5078786;28;20626;-62
2022/05/04 03:06:33;;;;;;;33.83;10.87;;;13.10;41.50;;;;;;5079758;28;20463;-63
2022/05/04 03:09:00;;;;;;;36.57;11.43;;;13.10;41.10;;;;;;5087717;28;20480;-63
2022/05/04 03:14:11;;;;;;;33.87;10.17;;;13.10;40.70;;;;;;5076595;28;20979;-64
2022/05/04 03:16:39;;;;;;;35.90;10.80;;;13.00;40.70;;;;;;5072874;28;20452;-62
2022/05/04 03:19:08;;;;;;;35.50;10.37;;;13.00;41.10;;;;;;5081908;28;20476;-62
2022/05/04 03:21:35;;;;;;;35.83;10.93;;;13.00;41.60;;;;;;5082465;28;20448;-63
2022/05/04 03:24:02;;;;;;;36.80;11.33;;;12.90;41.20;;;;;;5077946;28;20491;-64
2022/05/04 03:26:29;;;;;;;34.30;9.80;;;12.90;41.10;;;;;;5084080;28;20452;-64
2022/05/04 03:28:56;;;;;;;35.10;10.87;;;12.90;41.10;;;;;;5082931;28;21208;-62
2022/05/04 03:31:23;;;;;;;36.00;10.80;;;12.90;41.10;;;;;;5069796;28;20464;-63
2022/05/04 03:33:50;;;;;;;40.10;11.70;;;12.90;41.30;;;;;;5073268;28;20478;-65
2022/05/04 03:36:18;;;;;;;35.53;11.07;;;12.90;41.30;;;;;;5076975;28;20469;-62
2022/05/04 03:38:45;;;;;;;35.17;10.90;;;12.90;41.20;;;;;;5073278;28;21180;-65
2022/05/04 03:41:12;;;;;;;34.33;9.97;;;12.90;41.40;;;;;;5076770;28;20460;-61
2022/05/04 03:43:39;;;;;;;35.00;10.23;;;12.80;41.90;;;;;;5073863;28;20464;-63
2022/05/04 03:46:13;;;;;;;34.33;10.27;;;12.80;41.90;;;;;;5082918;28;20467;-64
2022/05/04 03:48:40;;;;;;;36.73;13.20;;;12.90;42.30;;;;;;5071120;28;20468;-64
2022/05/04 03:51:07;;;;;;;36.23;11.47;;;12.80;41.70;;;;;;5070844;28;20468;-64
2022/05/04 03:53:36;;;;;;;35.80;12.00;;;12.80;41.60;;;;;;5076110;28;20623;-63
2022/05/04 03:56:03;;;;;;;36.23;10.97;;;12.80;41.70;;;;;;5077794;28;20454;-62
2022/05/04 03:58:30;;;;;;;35.10;12.30;;;12.80;42.10;;;;;;5082594;28;20495;-62
2022/05/04 04:00:57;;;;;;;35.27;11.70;;;12.80;41.90;;;;;;5075833;28;20483;-63
2022/05/04 04:03:24;;;;;;;37.47;13.13;;;12.80;41.80;;;;;;5075848;28;20468;-64
2022/05/04 04:05:51;;;;;;;35.97;12.27;;;12.80;42.00;;;;;;5076049;28;20588;-62
2022/05/04 04:08:18;;;;;;;35.53;11.93;;;12.80;41.60;;;;;;5078815;28;20456;-64
2022/05/04 04:10:46;;;;;;;35.77;11.77;;;12.80;41.60;;;;;;5081611;28;20873;-66
2022/05/04 04:13:13;;;;;;;36.33;11.47;;;12.80;41.70;;;;;;5069672;28;20464;-67
2022/05/04 04:15:40;;;;;;;35.70;10.87;;;12.80;41.60;;;;;;5077874;28;20464;-64
2022/05/04 04:18:06;;;;;;;37.27;12.27;;;12.80;41.50;;;;;;5071323;28;20453;-63
2022/05/04 04:23:18;;;;;;;37.83;11.77;;;12.80;41.40;;;;;;5075093;28;20459;-65
2022/05/04 04:25:46;;;;;;;35.47;11.90;;;12.90;41.20;;;;;;5081458;28;20483;-64
2022/05/04 04:28:13;;;;;;;35.40;11.10;;;12.90;41.50;;;;;;5071863;28;20510;-62
2022/05/04 04:30:40;;;;;;;36.47;12.67;;;13.00;41.10;;;;;;5073307;28;20986;-66
2022/05/04 04:33:08;;;;;;;37.47;11.93;;;13.00;41.00;;;;;;5082294;28;20456;-63
2022/05/04 04:35:35;;;;;;;37.33;11.80;;;13.00;41.10;;;;;;5075335;28;20978;-64
2022/05/04 04:38:02;;;;;;;36.57;12.00;;;13.00;41.00;;;;;;5081212;28;20460;-63
2022/05/04 04:40:29;;;;;;;37.20;12.33;;;13.00;41.10;;;;;;5077600;28;20472;-64
2022/05/04 04:42:57;;;;;;;36.23;11.70;;;13.10;41.10;;;;;;5079104;28;20465;-65
2022/05/04 04:45:24;;;;;;;35.70;12.27;;;13.10;41.00;;;;;;5074076;28;20943;-63
2022/05/04 04:47:51;;;;;;;36.20;12.63;;;13.20;40.70;;;;;;5076243;28;20836;-64
2022/05/04 04:50:17;;;;;;;36.80;12.67;;;13.20;41.00;;;;;;5073150;28;20484;-64
2022/05/04 04:52:44;;;;;;;36.07;11.90;;;13.30;40.70;;;;;;5082692;28;20457;-63
2022/05/04 04:55:11;;;;;;;34.50;12.00;;;13.40;40.50;;;;;;5080016;28;20491;-64
2022/05/04 04:57:38;;;;;;;41.90;12.27;;;13.40;40.60;;;;;;5072863;28;20465;-65
2022/05/04 05:00:08;;;;;;;35.30;11.10;;;13.50;40.50;;;;;;5072653;28;21006;-63
2022/05/04 05:02:35;;;;;;;35.13;12.10;;;13.50;40.60;;;;;;5074491;28;20464;-65
2022/05/04 05:05:02;;;;;;;37.73;12.77;;;13.60;40.50;;;;;;5076913;28;20480;-65
2022/05/04 05:07:29;;;;;;;37.60;13.43;;;13.70;40.40;;;;;;5081235;28;20460;-65
2022/05/04 05:09:56;;;;;;;38.73;12.57;;;13.70;40.00;;;;;;5068285;28;20903;-64
2022/05/04 05:12:22;;;;;;;36.17;12.00;;;13.80;39.60;;;;;;5079195;28;20460;-66
2022/05/04 05:17:36;;;;;;;35.23;10.67;;;13.90;39.70;;;;;;5081944;28;20447;-63
2022/05/04 05:20:04;;;;;;;36.00;11.40;;;14.00;39.60;;;;;;5070846;28;20511;-63
2022/05/04 05:22:32;;;;;;;37.20;11.33;;;14.00;39.50;;;;;;5084730;28;20456;-64
2022/05/04 05:24:59;;;;;;;36.33;11.53;;;14.10;39.50;;;;;;5079951;28;20484;-64
2022/05/04 05:27:25;;;;;;;35.00;10.73;;;14.20;39.40;;;;;;5077950;28;20503;-66
2022/05/04 05:29:52;;;;;;;39.70;10.90;;;14.20;39.40;;;;;;5074396;28;20991;-62
2022/05/04 05:32:19;;;;;;;34.00;10.30;;;14.30;39.00;;;;;;5073295;28;20468;-62
2022/05/04 05:34:47;;;;;;;34.63;10.00;;;14.40;38.70;;;;;;5084025;28;20456;-65
2022/05/04 05:37:14;;;;;;;35.20;11.57;;;14.40;38.70;;;;;;5074741;28;20464;-64
2022/05/04 05:39:41;;;;;;;37.23;10.80;;;14.40;38.50;;;;;;5078959;28;20477;-63
2022/05/04 05:42:08;;;;;;;33.20;10.20;;;14.40;38.20;;;;;;5073232;28;20457;-63
2022/05/04 05:44:35;;;;;;;33.83;10.53;;;14.50;38.30;;;;;;5080829;28;20889;-62
2022/05/04 05:47:02;;;;;;;32.93;10.50;;;14.60;38.10;;;;;;5072694;28;20463;-65
2022/05/04 05:49:29;;;;;;;33.80;10.57;;;14.60;38.00;;;;;;5080587;28;20547;-65
2022/05/04 05:51:58;;;;;;;33.37;9.83;;;14.70;37.90;;;;;;5074352;28;20834;-66
2022/05/04 05:54:25;;;;;;;33.80;10.63;;;14.90;37.50;;;;;;5076299;28;20463;-63
2022/05/04 05:56:52;;;;;;;32.97;8.80;;;15.10;37.30;;;;;;5082788;28;20472;-65
2022/05/04 05:59:18;;;;;;;32.87;10.43;;;15.70;37.40;;;;;;5073665;28;20530;-62
2022/05/04 06:01:45;;;;;;;34.70;9.90;;;16.30;34.90;;;;;;5087595;28;20472;-65
2022/05/04 06:04:12;;;;;;;32.53;9.43;;;16.50;33.50;;;;;;5078980;28;20484;-66
2022/05/04 06:06:39;;;;;;;32.03;8.23;;;16.90;32.80;;;;;;5080652;28;20472;-64
2022/05/04 06:09:07;;;;;;;33.53;8.33;;;17.70;31.10;;;;;;5085332;28;20483;-66
2022/05/04 06:11:34;;;;;;;32.53;8.40;;;18.30;28.00;;;;;;5088452;28;20460;-63
2022/05/04 06:14:01;;;;;;;31.37;7.60;;;19.10;27.00;;;;;;5084945;28;20448;-64
2022/05/04 06:16:28;;;;;;;30.70;7.70;;;21.70;22.20;;;;;;5080279;28;20463;-62
2022/05/04 06:18:55;;;;;;;30.80;8.20;;;24.50;15.80;;;;;;5075592;28;20481;-64
2022/05/04 06:21:22;;;;;;;28.47;6.67;;;27.00;11.40;;;;;;5079542;28;20464;-64
2022/05/04 06:23:49;;;;;;;28.93;6.70;;;29.00;8.50;;;;;;5075941;28;20463;-65
2022/05/04 06:26:20;;;;;;;27.37;5.93;;;30.00;5.20;;;;;;5085646;28;20503;-64
2022/05/04 06:28:47;;;;;;;26.83;5.60;;;31.60;3.10;;;;;;5077940;28;20574;-66
2022/05/04 06:34:10;;;;;;;26.47;5.30;;;30.50;2.20;;;;;;5079705;28;20928;-62
2022/05/04 06:36:39;;;;;;;26.47;5.37;;;30.40;2.10;;;;;;5082469;28;20476;-63
2022/05/04 06:39:06;;;;;;;26.27;5.73;;;29.70;2.50;;;;;;5077044;28;20472;-65
2022/05/04 06:41:35;;;;;;;28.50;6.07;;;29.30;3.50;;;;;;5079123;28;20461;-66
2022/05/04 06:44:02;;;;;;;26.40;5.90;;;29.00;3.70;;;;;;5073356;28;20460;-66
2022/05/04 06:46:28;;;;;;;29.10;6.67;;;28.50;4.00;;;;;;5081092;28;20484;-66
2022/05/04 06:48:55;;;;;;;27.80;6.00;;;29.10;4.60;;;;;;5083327;28;20480;-64
2022/05/04 06:51:22;;;;;;;26.10;5.97;;;31.20;2.20;;;;;;5074100;28;20955;-65
2022/05/04 06:53:49;;;;;;;26.40;5.43;;;33.10;1.00;;;;;;5070563;28;20464;-68
2022/05/04 06:56:16;;;;;;;26.33;5.07;;;34.90;1.00;;;;;;5075005;28;20463;-65
2022/05/04 06:58:44;;;;;;;25.30;5.50;;;36.70;1.00;;;;;;5079549;28;20467;-63
2022/05/04 07:01:12;;;;;;;25.20;5.17;;;38.20;1.00;;;;;;5070329;28;20483;-64
2022/05/04 07:03:39;;;;;;;23.77;5.13;;;39.50;1.00;;;;;;5078235;28;20461;-63
2022/05/04 07:06:06;;;;;;;23.70;5.17;;;40.60;1.00;;;;;;5080009;28;20507;-67
2022/05/04 07:08:33;;;;;;;22.50;4.63;;;41.00;1.00;;;;;;5078160;28;20456;-64
2022/05/04 07:11:00;;;;;;;23.00;5.40;;;41.50;1.00;;;;;;5069522;28;20895;-66
2022/05/04 07:13:27;;;;;;;22.27;4.83;;;41.90;1.00;;;;;;5074416;28;20995;-65
2022/05/04 07:15:56;;;;;;;23.00;4.83;;;42.40;1.00;;;;;;5077289;28;21012;-64
2022/05/04 07:18:23;;;;;;;23.00;4.30;;;42.80;1.00;;;;;;5077650;28;20468;-65
2022/05/04 07:20:50;;;;;;;23.67;5.20;;;43.30;1.00;;;;;;5071745;28;20449;-64
2022/05/04 07:23:17;;;;;;;22.77;5.00;;;43.90;1.00;;;;;;5078363;28;20452;-66
2022/05/04 07:25:44;;;;;;;22.60;4.97;;;44.20;1.00;;;;;;5073580;28;20860;-63
2022/05/04 07:28:11;;;;;;;23.53;5.33;;;44.80;1.00;;;;;;5072764;28;20476;-64
2022/05/04 07:30:39;;;;;;;22.60;4.90;;;45.50;1.00;;;;;;5074178;28;20475;-65
2022/05/04 07:33:07;;;;;;;22.00;4.83;;;46.20;1.00;;;;;;5075479;28;20522;-64
2022/05/04 07:35:34;;;;;;;21.30;5.10;;;46.60;1.00;;;;;;5072451;28;20505;-65
2022/05/04 07:38:00;;;;;;;21.17;4.53;;;46.90;1.00;;;;;;5078382;28;20460;-63
2022/05/04 07:43:12;;;;;;;22.50;4.57;;;44.10;1.00;;;;;;5074427;28;20471;-64
2022/05/04 07:45:38;;;;;;;23.40;5.27;;;42.20;1.00;;;;;;5077428;28;20477;-62
2022/05/04 07:48:07;;;;;;;22.60;5.23;;;41.50;1.00;;;;;;5077991;28;20464;-64
2022/05/04 07:50:34;;;;;;;24.83;5.90;;;40.70;1.00;;;;;;5078656;28;20472;-63
2022/05/04 07:53:02;;;;;;;22.67;5.23;;;41.70;1.00;;;;;;5075705;28;20482;-64
2022/05/04 07:55:30;;;;;;;23.00;5.67;;;43.30;1.00;;;;;;5076908;28;20962;-64
2022/05/04 07:57:57;;;;;;;22.70;5.07;;;44.60;1.00;;;;;;5071228;28;20513;-63
2022/05/04 08:05:55;;;;;;;23.77;5.60;;;47.00;1.00;;;;;;5072898;28;20476;-64
2022/05/04 08:08:21;;;;;;;22.80;5.20;;;47.60;1.00;;;;;;5070859;28;20465;-63
2022/05/04 08:10:48;;;;;;;21.43;4.90;;;48.20;1.00;;;;;;5078081;28;20465;-63
2022/05/04 08:13:15;;;;;;;22.10;5.70;;;48.50;1.00;;;;;;5073554;28;20457;-64
2022/05/04 08:15:41;;;;;;;21.70;6.10;;;48.80;1.00;;;;;;5072271;28;20472;-64
2022/05/04 08:18:09;;;;;;;22.00;5.53;;;48.80;1.00;;;;;;5079664;28;20826;-65
2022/05/04 08:20:37;;;;;;;20.97;5.07;;;49.00;1.00;;;;;;5076533;28;20480;-66
2022/05/04 08:23:04;;;;;;;21.40;5.80;;;49.40;1.00;;;;;;5077666;28;20461;-63
2022/05/04 08:25:31;;;;;;;26.73;6.03;;;49.60;1.00;;;;;;5075362;28;20477;-66
2022/05/04 08:27:58;;;;;;;21.37;5.70;;;49.80;1.00;;;;;;5077812;28;20456;-64
2022/05/04 08:30:26;;;;;;;21.50;5.03;;;49.90;1.00;;;;;;5083579;28;20485;-65
2022/05/04 08:32:52;;;;;;;23.37;8.43;;;50.20;1.00;;;;;;5080879;28;20460;-65
2022/05/04 08:35:21;;;;;;;21.70;5.50;;;50.30;1.00;;;;;;5073448;28;20472;-64
2022/05/04 08:37:47;;;;;;;22.50;5.20;;;50.40;1.00;;;;;;5080320;28;20491;-65
2022/05/04 08:40:15;;;;;;;22.73;5.60;;;50.60;1.00;;;;;;5070445;28;20503;-65
2022/05/04 08:42:43;;;;;;;21.20;5.03;;;50.70;1.00;;;;;;5082827;28;20453;-65
2022/05/04 08:45:12;;;;;;;20.93;4.57;;;50.80;1.00;;;;;;5070275;28;20507;-67
2022/05/04 08:47:40;;;;;;;22.40;4.90;;;50.80;1.00;;;;;;5082665;28;20457;-65
2022/05/04 08:50:11;;;;;;;20.97;4.80;;;51.00;1.00;;;;;;5070055;28;20473;-64
2022/05/04 08:52:44;;;;;;;21.30;5.10;;;51.20;1.00;;;;;;5075590;28;20460;-65
2022/05/04 08:55:11;;;;;;;20.40;4.80;;;51.40;1.00;;;;;;5078498;28;20460;-64
2022/05/04 08:57:39;;;;;;;21.20;4.97;;;51.70;1.00;;;;;;5081875;28;20959;-65
2022/05/04 09:00:10;;;;;;;20.83;5.70;;;51.60;1.00;;;;;;5074518;28;20491;-64
2022/05/04 09:02:37;;;;;;;21.20;4.60;;;51.60;1.00;;;;;;5076543;28;20467;-64
2022/05/04 09:05:19;;;;;;;21.70;4.90;;;51.40;1.00;;;;;;5081551;28;21165;-64
2022/05/04 09:07:49;;;;;;;20.23;4.40;;;51.60;1.00;;;;;;5077700;28;20460;-63
2022/05/04 09:10:17;;;;;;;20.73;5.60;;;51.50;1.00;;;;;;5077482;28;20480;-65
2022/05/04 09:12:45;;;;;;;21.23;5.47;;;51.60;1.00;;;;;;5075944;28;20479;-66
2022/05/04 09:15:20;;;;;;;21.00;4.90;;;51.60;1.00;;;;;;5077938;28;20457;-65
2022/05/04 09:17:46;;;;;;;21.10;5.23;;;52.00;1.00;;;;;;5074049;28;20456;-65
2022/05/04 09:22:59;;;;;;;21.10;5.10;;;51.90;1.00;;;;;;5082151;28;20450;-65
2022/05/04 09:25:26;;;;;;;20.70;5.10;;;52.10;1.00;;;;;;5077220;28;20464;-64
2022/05/04 09:27:52;;;;;;;20.20;4.63;;;52.20;1.00;;;;;;5080859;28;20464;-64
2022/05/04 09:30:25;;;;;;;20.10;4.27;;;52.30;1.00;;;;;;5071076;28;20481;-67
2022/05/04 09:32:52;;;;;;;19.93;4.40;;;51.60;1.00;;;;;;5083650;28;20968;-65
2022/05/04 09:35:19;;;;;;;20.63;4.80;;;51.70;1.00;;;;;;5075530;28;20465;-65
2022/05/04 09:46:04;;;;;;;21.20;4.60;;;49.60;1.00;;;;;;5079494;28;20503;-65
2022/05/04 09:48:31;;;;;;;22.60;5.03;;;48.70;1.00;;;;;;5089892;28;20460;-67
2022/05/04 09:51:02;;;;;;;20.40;3.40;;;48.70;1.00;;;;;;5077101;28;20460;-65
2022/05/04 09:53:29;;;;;;;23.20;4.27;;;49.30;1.00;;;;;;5075423;28;20461;-67
2022/05/04 09:55:57;;;;;;;21.20;3.87;;;50.10;1.00;;;;;;5076017;28;20461;-64
2022/05/04 09:58:26;;;;;;;19.77;3.00;;;50.40;1.00;;;;;;5085060;28;20468;-64
2022/05/04 10:00:55;;;;;;;20.77;3.33;;;50.60;1.00;;;;;;5082011;28;20484;-64
2022/05/04 10:03:22;;;;;;;20.33;3.03;;;48.00;1.00;;;;;;5083746;28;20456;-64
2022/05/04 10:05:49;;;;;;;21.77;3.20;;;47.50;1.00;;;;;;5079605;28;20461;-63
2022/05/04 10:08:16;;;;;;;21.60;3.50;;;48.40;1.00;;;;;;5085724;28;20483;-64
2022/05/04 10:10:44;;;;;;;20.90;3.50;;;48.30;1.00;;;;;;5078294;28;20981;-64
2022/05/04 10:13:12;;;;;;;21.17;3.10;;;47.20;1.00;;;;;;5078011;28;20465;-63
2022/05/04 10:15:40;;;;;;;21.50;4.10;;;45.50;1.00;;;;;;5080006;28;20530;-65
2022/05/04 10:18:13;;;;;;;22.30;3.80;;;43.90;1.00;;;;;;5070697;28;20448;-64
2022/05/04 10:20:44;;;;;;;22.13;3.80;;;41.80;1.00;;;;;;5083890;28;21097;-64
2022/05/04 10:23:16;;;;;;;23.80;4.80;;;40.00;1.00;;;;;;5080370;28;20468;-64
2022/05/04 10:25:43;;;;;;;22.77;4.53;;;38.60;1.00;;;;;;5082248;28;20453;-64
2022/05/04 10:28:13;;;;;;;23.97;4.97;;;37.20;1.00;;;;;;5079464;28;20514;-64
2022/05/04 10:30:46;;;;;;;24.40;5.77;;;35.80;1.00;;;;;;5080724;28;20469;-65
2022/05/04 10:33:14;;;;;;;24.70;5.43;;;34.60;1.00;;;;;;5084736;28;20467;-64
2022/05/04 10:35:46;;;;;;;25.73;5.67;;;33.70;1.00;;;;;;5087400;28;20475;-65
2022/05/04 10:38:18;;;;;;;23.30;4.13;;;32.80;1.00;;;;;;5086081;28;20460;-63
2022/05/04 10:40:47;;;;;;;25.20;5.20;;;32.30;1.00;;;;;;5076506;28;20488;-63
2022/05/04 10:43:17;;;;;;;24.30;4.73;;;32.00;1.00;;;;;;5072475;28;20986;-64
2022/05/04 10:45:46;;;;;;;26.13;5.13;;;31.80;1.00;;;;;;5081834;28;20468;-66
2022/05/04 10:48:29;;;;;;;24.77;4.87;;;31.50;1.00;;;;;;5086543;28;20859;-64
2022/05/04 10:50:59;;;;;;;25.67;5.80;;;31.20;1.00;;;;;;5082311;28;20452;-64
2022/05/04 10:53:38;;;;;;;26.07;5.53;;;30.90;1.00;;;;;;5082198;28;20459;-63
2022/05/04 10:56:07;;;;;;;27.17;5.50;;;30.50;1.00;;;;;;5078774;28;20451;-63
2022/05/04 10:58:37;;;;;;;25.40;5.50;;;30.10;1.00;;;;;;5084444;28;20506;-66
2022/05/04 11:01:06;;;;;;;24.90;4.70;;;29.80;1.00;;;;;;5077264;28;20473;-63
2022/05/04 11:03:34;;;;;;;25.57;4.80;;;29.50;1.00;;;;;;5073753;28;20457;-66
2022/05/04 11:06:05;;;;;;;25.60;5.07;;;29.30;1.00;;;;;;5078951;28;20457;-62
2022/05/04 11:08:35;;;;;;;25.60;4.80;;;29.00;1.00;;;;;;5081444;28;20464;-63
2022/05/04 11:11:02;;;;;;;25.90;5.30;;;28.80;1.00;;;;;;5083398;28;20480;-66
2022/05/04 11:13:30;;;;;;;26.30;5.33;;;28.50;1.00;;;;;;5085947;28;20456;-62
2022/05/04 11:16:01;;;;;;;25.10;5.10;;;28.30;1.00;;;;;;5080337;28;21082;-63
2022/05/04 11:18:28;;;;;;;25.10;4.57;;;28.10;1.00;;;;;;5075415;28;20538;-62
2022/05/04 11:20:55;;;;;;;26.20;5.23;;;27.90;1.00;;;;;;5073279;28;20457;-61
2022/05/04 11:23:26;;;;;;;24.83;4.77;;;28.10;1.00;;;;;;5078826;28;20571;-63
2022/05/04 11:25:53;;;;;;;25.40;5.30;;;28.20;1.00;;;;;;5079059;28;20456;-67
2022/05/04 11:28:23;;;;;;;25.07;4.70;;;28.20;1.00;;;;;;5078222;28;20485;-61
2022/05/04 11:30:51;;;;;;;26.00;4.87;;;28.00;1.80;;;;;;5074491;28;20473;-63
2022/05/04 11:33:20;;;;;;;26.00;5.33;;;27.70;1.00;;;;;;5077641;28;20461;-66
2022/05/04 11:35:53;;;;;;;27.20;4.50;;;27.30;1.70;;;;;;5080849;28;20473;-65
2022/05/04 11:38:20;;;;;;;25.50;5.27;;;27.10;2.20;;;;;;5080749;28;20457;-66
2022/05/04 11:40:48;;;;;;;25.57;4.60;;;26.90;2.40;;;;;;5080221;28;20473;-63
2022/05/04 11:43:27;;;;;;;27.87;5.03;;;26.90;2.10;;;;;;5074926;28;20456;-65
2022/05/04 11:45:54;;;;;;;28.00;4.40;;;26.80;2.40;;;;;;5076715;28;20581;-66
2022/05/04 11:48:23;;;;;;;25.70;4.70;;;26.70;2.90;;;;;;5083596;28;20836;-63
2022/05/04 11:50:52;;;;;;;25.37;4.10;;;26.60;3.40;;;;;;5073960;28;20548;-64
2022/05/04 11:53:19;;;;;;;24.30;3.43;;;26.60;3.80;;;;;;5070820;28;20464;-64
2022/05/04 11:55:46;;;;;;;24.60;3.60;;;26.40;3.90;;;;;;5082654;28;20490;-64
2022/05/04 11:58:14;;;;;;;26.07;3.70;;;26.10;4.00;;;;;;5077392;28;20467;-64
2022/05/04 12:00:41;;;;;;;26.30;3.63;;;25.80;3.30;;;;;;5066757;28;20927;-63
2022/05/04 12:03:08;;;;;;;24.80;3.63;;;25.40;3.80;;;;;;5069307;28;20951;-61
2022/05/04 12:05:38;;;;;;;25.00;3.43;;;25.20;4.50;;;;;;5079269;28;20449;-64
2022/05/04 12:08:06;;;;;;;26.20;4.20;;;24.90;5.30;;;;;;5083618;28;20476;-66
2022/05/04 12:10:34;;;;;;;24.87;3.73;;;24.60;5.50;;;;;;5071713;28;20484;-62
2022/05/04 12:13:02;;;;;;;28.27;3.50;;;24.30;5.60;;;;;;5082582;28;20468;-63
2022/05/04 12:15:29;;;;;;;25.23;3.60;;;23.90;5.70;;;;;;5074955;28;20540;-62
2022/05/04 12:18:00;;;;;;;25.40;4.23;;;23.60;7.20;;;;;;5080334;28;20539;-67
2022/05/04 12:20:28;;;;;;;25.93;4.03;;;23.30;7.60;;;;;;5070936;28;20487;-63
2022/05/04 12:22:57;;;;;;;24.00;3.83;;;23.10;8.60;;;;;;5083363;28;20475;-63
2022/05/04 12:25:24;;;;;;;23.60;4.40;;;22.80;9.60;;;;;;5073807;28;20461;-64
2022/05/04 12:27:54;;;;;;;24.70;4.20;;;22.60;9.80;;;;;;5081930;28;20533;-65
2022/05/04 12:33:11;;;;;;;24.93;4.87;;;22.30;10.30;;;;;;5082692;28;20992;-65
2022/05/04 12:35:42;;;;;;;28.53;4.87;;;22.10;10.10;;;;;;5079637;28;20473;-64
2022/05/04 12:38:13;;;;;;;25.20;4.60;;;22.10;10.50;;;;;;5075615;28;20453;-63
2022/05/04 12:40:40;;;;;;;26.57;6.70;;;22.20;10.60;;;;;;5074421;28;21151;-64
2022/05/04 12:43:08;;;;;;;25.77;4.43;;;22.30;10.50;;;;;;5067448;28;20468;-64
2022/05/04 12:45:35;;;;;;;23.43;4.10;;;22.40;10.50;;;;;;5073526;28;20468;-63
2022/05/04 12:48:07;;;;;;;24.77;4.67;;;22.50;10.50;;;;;;5070876;28;20489;-64
2022/05/04 12:50:34;;;;;;;24.47;4.37;;;22.70;11.00;;;;;;5072597;28;21002;-62
2022/05/04 12:53:01;;;;;;;26.10;4.90;;;22.90;11.30;;;;;;5074138;28;20946;-63
2022/05/04 12:58:14;;;;;;;25.70;4.47;;;23.20;12.20;;;;;;5079905;28;20443;-63
2022/05/04 13:00:41;;;;;;;23.17;3.87;;;23.50;12.10;;;;;;5075151;28;20844;-62
2022/05/04 13:03:11;;;;;;;24.87;4.00;;;23.70;12.40;;;;;;5074108;28;20461;-63
2022/05/04 13:05:38;;;;;;;25.50;3.50;;;23.90;10.80;;;;;;5074981;28;20978;-63
2022/05/04 13:08:06;;;;;;;26.60;3.67;;;24.10;9.30;;;;;;5080303;28;20477;-65
2022/05/04 13:10:35;;;;;;;25.60;3.60;;;24.10;8.40;;;;;;5076790;28;20476;-63
2022/05/04 13:13:01;;;;;;;26.73;4.53;;;24.10;8.70;;;;;;5081592;28;20456;-63
2022/05/04 13:15:28;;;;;;;27.47;3.70;;;24.10;8.90;;;;;;5082038;28;20487;-63
2022/05/04 13:17:55;;;;;;;25.43;3.97;;;24.10;7.90;;;;;;5080629;28;20448;-63
2022/05/04 13:20:22;;;;;;;26.53;4.70;;;24.10;8.10;;;;;;5076683;28;20476;-64
2022/05/04 13:22:49;;;;;;;27.30;4.43;;;24.00;8.80;;;;;;5079969;28;20487;-62
2022/05/04 13:25:17;;;;;;;27.33;6.97;;;24.00;9.30;;;;;;5069056;28;20460;-65